sensor_id;sensor_type;location;lat;lon;timestamp;P1;durP1;ratioP1;P2;durP2;ratioP2
36551;SDS011;22559;54.176;12.102;2022-11-24T00:00:51;48.17;;;20.50;;
36551;SDS011;22559;54.176;12.102;2022-11-24T00:03:17;53.20;;;19.30;;
36551;SDS011;22559;54.176;12.102;2022-11-24T00:05:43;48.03;;;20.30;;
36551;SDS011;22559;54.176;12.102;2022-11-24T00:08:09;45.37;;;21.00;;
36551;SDS011;22559;54.176;12.102;2022-11-24T00:10:35;37.50;;;18.80;;
36551;SDS011;22559;54.176;12.102;2022-11-24T00:13:00;51.40;;;20.17;;
36551;SDS011;22559;54.176;12.102;2022-11-24T00:15:26;43.40;;;19.87;;
36551;SDS011;22559;54.176;12.102;2022-11-24T00:17:52;45.73;;;20.60;;
36551;SDS011;22559;54.176;12.102;2022-11-24T00:20:17;42.13;;;19.20;;
36551;SDS011;22559;54.176;12.102;2022-11-24T00:22:43;44.73;;;19.53;;
36551;SDS011;22559;54.176;12.102;2022-11-24T00:25:09;48.63;;;20.73;;
36551;SDS011;22559;54.176;12.102;2022-11-24T00:27:34;44.77;;;20.90;;
36551;SDS011;22559;54.176;12.102;2022-11-24T00:30:00;47.43;;;19.87;;
36551;SDS011;22559;54.176;12.102;2022-11-24T00:32:29;48.23;;;20.63;;
36551;SDS011;22559;54.176;12.102;2022-11-24T00:34:55;41.13;;;18.60;;
36551;SDS011;22559;54.176;12.102;2022-11-24T00:37:21;42.73;;;20.47;;
36551;SDS011;22559;54.176;12.102;2022-11-24T00:39:47;42.63;;;20.20;;
36551;SDS011;22559;54.176;12.102;2022-11-24T00:42:13;43.60;;;18.93;;
36551;SDS011;22559;54.176;12.102;2022-11-24T00:44:39;42.47;;;20.27;;
36551;SDS011;22559;54.176;12.102;2022-11-24T00:47:05;46.27;;;19.67;;
36551;SDS011;22559;54.176;12.102;2022-11-24T00:49:30;46.90;;;19.37;;
36551;SDS011;22559;54.176;12.102;2022-11-24T00:51:56;43.33;;;20.33;;
36551;SDS011;22559;54.176;12.102;2022-11-24T00:54:22;46.93;;;20.97;;
36551;SDS011;22559;54.176;12.102;2022-11-24T00:56:48;43.13;;;19.40;;
36551;SDS011;22559;54.176;12.102;2022-11-24T00:59:13;39.47;;;17.87;;
36551;SDS011;22559;54.176;12.102;2022-11-24T01:01:39;46.37;;;21.00;;
36551;SDS011;22559;54.176;12.102;2022-11-24T01:04:06;47.43;;;21.60;;
36551;SDS011;22559;54.176;12.102;2022-11-24T01:06:32;45.40;;;21.80;;
36551;SDS011;22559;54.176;12.102;2022-11-24T01:08:59;52.03;;;21.17;;
36551;SDS011;22559;54.176;12.102;2022-11-24T01:11:31;42.30;;;20.53;;
36551;SDS011;22559;54.176;12.102;2022-11-24T01:14:19;43.93;;;20.77;;
36551;SDS011;22559;54.176;12.102;2022-11-24T01:16:47;46.70;;;20.40;;
36551;SDS011;22559;54.176;12.102;2022-11-24T01:19:12;38.47;;;18.60;;
36551;SDS011;22559;54.176;12.102;2022-11-24T01:21:38;41.70;;;19.63;;
36551;SDS011;22559;54.176;12.102;2022-11-24T01:24:04;47.80;;;20.00;;
36551;SDS011;22559;54.176;12.102;2022-11-24T01:26:30;46.80;;;19.70;;
36551;SDS011;22559;54.176;12.102;2022-11-24T01:28:56;49.10;;;20.00;;
36551;SDS011;22559;54.176;12.102;2022-11-24T01:31:23;42.13;;;18.93;;
36551;SDS011;22559;54.176;12.102;2022-11-24T01:33:50;44.33;;;18.87;;
36551;SDS011;22559;54.176;12.102;2022-11-24T01:36:16;44.10;;;20.10;;
36551;SDS011;22559;54.176;12.102;2022-11-24T01:38:41;43.03;;;18.13;;
36551;SDS011;22559;54.176;12.102;2022-11-24T01:41:18;42.80;;;20.23;;
36551;SDS011;22559;54.176;12.102;2022-11-24T01:43:45;45.87;;;19.80;;
36551;SDS011;22559;54.176;12.102;2022-11-24T01:49:03;42.80;;;18.90;;
36551;SDS011;22559;54.176;12.102;2022-11-24T01:51:42;40.30;;;19.13;;
36551;SDS011;22559;54.176;12.102;2022-11-24T01:55:05;35.80;;;18.63;;
36551;SDS011;22559;54.176;12.102;2022-11-24T01:57:20;36.10;;;18.57;;
36551;SDS011;22559;54.176;12.102;2022-11-24T01:59:49;38.47;;;19.23;;
36551;SDS011;22559;54.176;12.102;2022-11-24T02:02:19;36.10;;;18.97;;
36551;SDS011;22559;54.176;12.102;2022-11-24T02:04:46;39.70;;;19.23;;
36551;SDS011;22559;54.176;12.102;2022-11-24T02:07:12;41.27;;;18.93;;
36551;SDS011;22559;54.176;12.102;2022-11-24T02:09:40;37.80;;;18.77;;
36551;SDS011;22559;54.176;12.102;2022-11-24T02:12:11;39.70;;;18.13;;
36551;SDS011;22559;54.176;12.102;2022-11-24T02:14:36;42.27;;;18.97;;
36551;SDS011;22559;54.176;12.102;2022-11-24T02:17:04;43.60;;;20.50;;
36551;SDS011;22559;54.176;12.102;2022-11-24T02:19:40;42.53;;;20.23;;
36551;SDS011;22559;54.176;12.102;2022-11-24T02:22:22;42.63;;;19.37;;
36551;SDS011;22559;54.176;12.102;2022-11-24T02:25:02;40.70;;;20.00;;
36551;SDS011;22559;54.176;12.102;2022-11-24T02:27:41;37.07;;;18.20;;
36551;SDS011;22559;54.176;12.102;2022-11-24T02:30:08;39.23;;;17.83;;
36551;SDS011;22559;54.176;12.102;2022-11-24T02:32:35;35.93;;;18.37;;
36551;SDS011;22559;54.176;12.102;2022-11-24T02:35:05;43.40;;;19.70;;
36551;SDS011;22559;54.176;12.102;2022-11-24T02:37:33;40.30;;;18.73;;
36551;SDS011;22559;54.176;12.102;2022-11-24T02:39:58;42.47;;;19.10;;
36551;SDS011;22559;54.176;12.102;2022-11-24T02:42:25;37.40;;;19.23;;
36551;SDS011;22559;54.176;12.102;2022-11-24T02:44:54;39.60;;;19.30;;
36551;SDS011;22559;54.176;12.102;2022-11-24T02:47:23;37.63;;;18.30;;
36551;SDS011;22559;54.176;12.102;2022-11-24T02:49:49;43.27;;;18.93;;
36551;SDS011;22559;54.176;12.102;2022-11-24T02:52:15;44.70;;;21.37;;
36551;SDS011;22559;54.176;12.102;2022-11-24T02:54:41;45.37;;;20.60;;
36551;SDS011;22559;54.176;12.102;2022-11-24T02:57:07;41.50;;;19.33;;
36551;SDS011;22559;54.176;12.102;2022-11-24T02:59:33;45.83;;;19.63;;
36551;SDS011;22559;54.176;12.102;2022-11-24T03:01:59;49.60;;;20.43;;
36551;SDS011;22559;54.176;12.102;2022-11-24T03:04:25;42.43;;;19.73;;
36551;SDS011;22559;54.176;12.102;2022-11-24T03:06:50;46.27;;;20.30;;
36551;SDS011;22559;54.176;12.102;2022-11-24T03:09:16;45.07;;;18.97;;
36551;SDS011;22559;54.176;12.102;2022-11-24T03:11:42;41.83;;;18.77;;
36551;SDS011;22559;54.176;12.102;2022-11-24T03:14:08;42.90;;;20.23;;
36551;SDS011;22559;54.176;12.102;2022-11-24T03:16:33;42.67;;;19.37;;
36551;SDS011;22559;54.176;12.102;2022-11-24T03:18:59;42.17;;;17.60;;
36551;SDS011;22559;54.176;12.102;2022-11-24T03:21:26;47.20;;;19.53;;
36551;SDS011;22559;54.176;12.102;2022-11-24T03:23:51;41.23;;;18.53;;
36551;SDS011;22559;54.176;12.102;2022-11-24T03:26:18;38.47;;;17.73;;
36551;SDS011;22559;54.176;12.102;2022-11-24T03:28:45;40.73;;;18.77;;
36551;SDS011;22559;54.176;12.102;2022-11-24T03:31:11;37.50;;;19.47;;
36551;SDS011;22559;54.176;12.102;2022-11-24T03:33:48;36.20;;;18.27;;
36551;SDS011;22559;54.176;12.102;2022-11-24T03:36:13;37.57;;;19.27;;
36551;SDS011;22559;54.176;12.102;2022-11-24T03:38:40;38.50;;;18.27;;
36551;SDS011;22559;54.176;12.102;2022-11-24T03:41:06;38.90;;;18.93;;
36551;SDS011;22559;54.176;12.102;2022-11-24T03:43:32;39.73;;;17.93;;
36551;SDS011;22559;54.176;12.102;2022-11-24T03:45:58;37.60;;;18.87;;
36551;SDS011;22559;54.176;12.102;2022-11-24T03:48:23;36.07;;;19.10;;
36551;SDS011;22559;54.176;12.102;2022-11-24T03:50:53;38.27;;;17.47;;
36551;SDS011;22559;54.176;12.102;2022-11-24T03:53:22;36.67;;;17.13;;
36551;SDS011;22559;54.176;12.102;2022-11-24T03:55:50;34.10;;;16.67;;
36551;SDS011;22559;54.176;12.102;2022-11-24T03:58:15;34.90;;;17.80;;
36551;SDS011;22559;54.176;12.102;2022-11-24T04:00:41;40.67;;;17.20;;
36551;SDS011;22559;54.176;12.102;2022-11-24T04:03:07;32.90;;;16.23;;
36551;SDS011;22559;54.176;12.102;2022-11-24T04:05:33;38.07;;;17.23;;
36551;SDS011;22559;54.176;12.102;2022-11-24T04:08:00;40.73;;;18.50;;
36551;SDS011;22559;54.176;12.102;2022-11-24T04:10:28;32.63;;;16.33;;
36551;SDS011;22559;54.176;12.102;2022-11-24T04:12:54;40.03;;;18.43;;
36551;SDS011;22559;54.176;12.102;2022-11-24T04:15:20;33.20;;;16.87;;
36551;SDS011;22559;54.176;12.102;2022-11-24T04:17:46;35.50;;;17.20;;
36551;SDS011;22559;54.176;12.102;2022-11-24T04:20:12;34.83;;;18.07;;
36551;SDS011;22559;54.176;12.102;2022-11-24T04:22:39;37.30;;;17.60;;
36551;SDS011;22559;54.176;12.102;2022-11-24T04:25:05;35.43;;;17.43;;
36551;SDS011;22559;54.176;12.102;2022-11-24T04:27:32;39.10;;;17.50;;
36551;SDS011;22559;54.176;12.102;2022-11-24T04:29:59;37.40;;;17.63;;
36551;SDS011;22559;54.176;12.102;2022-11-24T04:32:25;38.80;;;18.10;;
36551;SDS011;22559;54.176;12.102;2022-11-24T04:34:50;37.83;;;18.03;;
36551;SDS011;22559;54.176;12.102;2022-11-24T04:37:16;38.37;;;15.90;;
36551;SDS011;22559;54.176;12.102;2022-11-24T04:39:42;33.07;;;18.00;;
36551;SDS011;22559;54.176;12.102;2022-11-24T04:42:08;36.20;;;17.73;;
36551;SDS011;22559;54.176;12.102;2022-11-24T04:44:34;36.97;;;17.23;;
36551;SDS011;22559;54.176;12.102;2022-11-24T04:47:00;41.17;;;19.00;;
36551;SDS011;22559;54.176;12.102;2022-11-24T04:49:25;39.00;;;17.83;;
36551;SDS011;22559;54.176;12.102;2022-11-24T04:51:51;41.80;;;18.00;;
36551;SDS011;22559;54.176;12.102;2022-11-24T04:54:17;36.60;;;17.87;;
36551;SDS011;22559;54.176;12.102;2022-11-24T04:56:42;39.80;;;16.70;;
36551;SDS011;22559;54.176;12.102;2022-11-24T04:59:15;31.10;;;16.83;;
36551;SDS011;22559;54.176;12.102;2022-11-24T05:01:41;39.00;;;17.03;;
36551;SDS011;22559;54.176;12.102;2022-11-24T05:04:08;35.23;;;17.10;;
36551;SDS011;22559;54.176;12.102;2022-11-24T05:06:38;38.90;;;17.93;;
36551;SDS011;22559;54.176;12.102;2022-11-24T05:09:04;39.57;;;17.97;;
36551;SDS011;22559;54.176;12.102;2022-11-24T05:11:31;39.37;;;18.20;;
36551;SDS011;22559;54.176;12.102;2022-11-24T05:13:57;40.40;;;19.17;;
36551;SDS011;22559;54.176;12.102;2022-11-24T05:16:22;37.20;;;19.03;;
36551;SDS011;22559;54.176;12.102;2022-11-24T05:18:48;43.00;;;19.93;;
36551;SDS011;22559;54.176;12.102;2022-11-24T05:21:14;41.73;;;19.83;;
36551;SDS011;22559;54.176;12.102;2022-11-24T05:23:39;45.70;;;19.60;;
36551;SDS011;22559;54.176;12.102;2022-11-24T05:26:05;40.27;;;20.23;;
36551;SDS011;22559;54.176;12.102;2022-11-24T05:28:31;45.77;;;20.07;;
36551;SDS011;22559;54.176;12.102;2022-11-24T05:31:00;39.23;;;19.00;;
36551;SDS011;22559;54.176;12.102;2022-11-24T05:33:26;46.17;;;20.37;;
36551;SDS011;22559;54.176;12.102;2022-11-24T05:35:54;50.17;;;21.90;;
36551;SDS011;22559;54.176;12.102;2022-11-24T05:38:23;48.63;;;21.13;;
36551;SDS011;22559;54.176;12.102;2022-11-24T05:40:50;46.57;;;19.67;;
36551;SDS011;22559;54.176;12.102;2022-11-24T05:43:16;45.73;;;20.60;;
36551;SDS011;22559;54.176;12.102;2022-11-24T05:45:42;46.93;;;21.53;;
36551;SDS011;22559;54.176;12.102;2022-11-24T05:48:12;51.93;;;20.37;;
36551;SDS011;22559;54.176;12.102;2022-11-24T05:50:39;41.07;;;20.23;;
36551;SDS011;22559;54.176;12.102;2022-11-24T05:53:09;45.53;;;19.77;;
36551;SDS011;22559;54.176;12.102;2022-11-24T05:55:36;46.17;;;19.63;;
36551;SDS011;22559;54.176;12.102;2022-11-24T05:58:03;45.40;;;20.83;;
36551;SDS011;22559;54.176;12.102;2022-11-24T06:00:31;50.57;;;21.23;;
36551;SDS011;22559;54.176;12.102;2022-11-24T06:02:58;48.73;;;21.30;;
36551;SDS011;22559;54.176;12.102;2022-11-24T06:05:24;54.27;;;21.33;;
36551;SDS011;22559;54.176;12.102;2022-11-24T06:07:51;52.40;;;22.07;;
36551;SDS011;22559;54.176;12.102;2022-11-24T06:10:18;54.70;;;21.47;;
36551;SDS011;22559;54.176;12.102;2022-11-24T06:12:45;47.80;;;21.53;;
36551;SDS011;22559;54.176;12.102;2022-11-24T06:15:11;53.37;;;22.93;;
36551;SDS011;22559;54.176;12.102;2022-11-24T06:17:37;49.87;;;21.27;;
36551;SDS011;22559;54.176;12.102;2022-11-24T06:20:03;46.37;;;20.40;;
36551;SDS011;22559;54.176;12.102;2022-11-24T06:22:33;54.70;;;22.17;;
36551;SDS011;22559;54.176;12.102;2022-11-24T06:24:59;48.00;;;20.90;;
36551;SDS011;22559;54.176;12.102;2022-11-24T06:27:24;53.73;;;21.13;;
36551;SDS011;22559;54.176;12.102;2022-11-24T06:29:50;48.50;;;20.30;;
36551;SDS011;22559;54.176;12.102;2022-11-24T06:32:16;48.90;;;21.57;;
36551;SDS011;22559;54.176;12.102;2022-11-24T06:34:42;47.87;;;21.60;;
36551;SDS011;22559;54.176;12.102;2022-11-24T06:37:07;53.13;;;21.87;;
36551;SDS011;22559;54.176;12.102;2022-11-24T06:39:33;43.97;;;21.30;;
36551;SDS011;22559;54.176;12.102;2022-11-24T06:41:59;54.93;;;22.10;;
36551;SDS011;22559;54.176;12.102;2022-11-24T06:44:25;49.93;;;20.77;;
36551;SDS011;22559;54.176;12.102;2022-11-24T06:46:51;52.33;;;20.90;;
36551;SDS011;22559;54.176;12.102;2022-11-24T06:49:17;54.37;;;23.23;;
36551;SDS011;22559;54.176;12.102;2022-11-24T06:51:42;51.60;;;22.00;;
36551;SDS011;22559;54.176;12.102;2022-11-24T06:54:09;53.67;;;21.87;;
36551;SDS011;22559;54.176;12.102;2022-11-24T06:56:37;53.30;;;22.07;;
36551;SDS011;22559;54.176;12.102;2022-11-24T06:59:02;54.97;;;22.90;;
36551;SDS011;22559;54.176;12.102;2022-11-24T07:01:28;51.70;;;23.43;;
36551;SDS011;22559;54.176;12.102;2022-11-24T07:03:54;51.17;;;21.73;;
36551;SDS011;22559;54.176;12.102;2022-11-24T07:06:21;53.17;;;22.17;;
36551;SDS011;22559;54.176;12.102;2022-11-24T07:08:48;53.50;;;23.53;;
36551;SDS011;22559;54.176;12.102;2022-11-24T07:11:19;55.93;;;23.33;;
36551;SDS011;22559;54.176;12.102;2022-11-24T07:13:46;56.23;;;24.47;;
36551;SDS011;22559;54.176;12.102;2022-11-24T07:16:22;56.43;;;23.77;;
36551;SDS011;22559;54.176;12.102;2022-11-24T07:18:49;55.40;;;23.67;;
36551;SDS011;22559;54.176;12.102;2022-11-24T07:21:17;58.13;;;22.80;;
36551;SDS011;22559;54.176;12.102;2022-11-24T07:23:46;52.23;;;24.00;;
36551;SDS011;22559;54.176;12.102;2022-11-24T07:26:13;62.00;;;23.90;;
36551;SDS011;22559;54.176;12.102;2022-11-24T07:28:39;62.17;;;24.83;;
36551;SDS011;22559;54.176;12.102;2022-11-24T07:31:08;64.50;;;24.10;;
36551;SDS011;22559;54.176;12.102;2022-11-24T07:33:35;53.90;;;23.40;;
36551;SDS011;22559;54.176;12.102;2022-11-24T07:36:02;52.90;;;23.60;;
36551;SDS011;22559;54.176;12.102;2022-11-24T07:38:29;60.73;;;23.63;;
36551;SDS011;22559;54.176;12.102;2022-11-24T07:41:15;57.67;;;24.33;;
36551;SDS011;22559;54.176;12.102;2022-11-24T07:43:41;56.27;;;24.83;;
36551;SDS011;22559;54.176;12.102;2022-11-24T07:46:08;59.47;;;24.93;;
36551;SDS011;22559;54.176;12.102;2022-11-24T07:48:36;53.30;;;24.63;;
36551;SDS011;22559;54.176;12.102;2022-11-24T07:51:02;62.87;;;24.07;;
36551;SDS011;22559;54.176;12.102;2022-11-24T07:53:29;51.47;;;24.10;;
36551;SDS011;22559;54.176;12.102;2022-11-24T07:55:56;56.23;;;23.60;;
36551;SDS011;22559;54.176;12.102;2022-11-24T07:58:29;54.90;;;22.23;;
36551;SDS011;22559;54.176;12.102;2022-11-24T08:00:56;50.70;;;22.90;;
36551;SDS011;22559;54.176;12.102;2022-11-24T08:03:22;52.57;;;23.73;;
36551;SDS011;22559;54.176;12.102;2022-11-24T08:05:52;53.57;;;23.20;;
36551;SDS011;22559;54.176;12.102;2022-11-24T08:08:19;47.07;;;22.00;;
36551;SDS011;22559;54.176;12.102;2022-11-24T08:10:45;52.17;;;23.27;;
36551;SDS011;22559;54.176;12.102;2022-11-24T08:13:11;48.73;;;22.80;;
36551;SDS011;22559;54.176;12.102;2022-11-24T08:15:36;52.97;;;23.73;;
36551;SDS011;22559;54.176;12.102;2022-11-24T08:18:03;53.17;;;22.30;;
36551;SDS011;22559;54.176;12.102;2022-11-24T08:20:29;47.90;;;21.80;;
36551;SDS011;22559;54.176;12.102;2022-11-24T08:22:57;42.77;;;20.33;;
36551;SDS011;22559;54.176;12.102;2022-11-24T08:25:24;44.37;;;21.73;;
36551;SDS011;22559;54.176;12.102;2022-11-24T08:27:59;45.00;;;20.60;;
36551;SDS011;22559;54.176;12.102;2022-11-24T08:30:26;47.77;;;22.00;;
36551;SDS011;22559;54.176;12.102;2022-11-24T08:32:52;43.37;;;21.40;;
36551;SDS011;22559;54.176;12.102;2022-11-24T08:35:18;48.17;;;22.57;;
36551;SDS011;22559;54.176;12.102;2022-11-24T08:37:44;48.43;;;21.00;;
36551;SDS011;22559;54.176;12.102;2022-11-24T08:40:10;44.17;;;20.80;;
36551;SDS011;22559;54.176;12.102;2022-11-24T08:42:36;47.80;;;19.77;;
36551;SDS011;22559;54.176;12.102;2022-11-24T08:45:02;49.67;;;21.67;;
36551;SDS011;22559;54.176;12.102;2022-11-24T08:47:28;41.80;;;20.90;;
36551;SDS011;22559;54.176;12.102;2022-11-24T08:49:54;44.57;;;20.40;;
36551;SDS011;22559;54.176;12.102;2022-11-24T08:52:19;45.17;;;21.57;;
36551;SDS011;22559;54.176;12.102;2022-11-24T08:54:45;41.37;;;20.70;;
36551;SDS011;22559;54.176;12.102;2022-11-24T08:57:13;51.17;;;22.47;;
36551;SDS011;22559;54.176;12.102;2022-11-24T08:59:38;44.30;;;22.20;;
36551;SDS011;22559;54.176;12.102;2022-11-24T09:02:04;45.63;;;21.60;;
36551;SDS011;22559;54.176;12.102;2022-11-24T09:04:30;43.57;;;21.27;;
36551;SDS011;22559;54.176;12.102;2022-11-24T09:06:56;45.47;;;21.60;;
36551;SDS011;22559;54.176;12.102;2022-11-24T09:09:22;43.07;;;20.67;;
36551;SDS011;22559;54.176;12.102;2022-11-24T09:11:48;43.67;;;19.77;;
36551;SDS011;22559;54.176;12.102;2022-11-24T09:14:13;39.20;;;19.47;;
36551;SDS011;22559;54.176;12.102;2022-11-24T09:16:39;38.93;;;18.87;;
36551;SDS011;22559;54.176;12.102;2022-11-24T09:19:05;40.00;;;19.80;;
36551;SDS011;22559;54.176;12.102;2022-11-24T09:21:32;42.23;;;19.70;;
36551;SDS011;22559;54.176;12.102;2022-11-24T09:24:01;41.63;;;20.67;;
36551;SDS011;22559;54.176;12.102;2022-11-24T09:26:31;35.03;;;18.73;;
36551;SDS011;22559;54.176;12.102;2022-11-24T09:28:59;38.23;;;18.23;;
36551;SDS011;22559;54.176;12.102;2022-11-24T09:31:27;40.00;;;19.10;;
36551;SDS011;22559;54.176;12.102;2022-11-24T09:33:55;39.90;;;19.37;;
36551;SDS011;22559;54.176;12.102;2022-11-24T09:36:21;38.40;;;19.47;;
36551;SDS011;22559;54.176;12.102;2022-11-24T09:38:47;41.80;;;19.77;;
36551;SDS011;22559;54.176;12.102;2022-11-24T09:43:49;38.17;;;17.57;;
36551;SDS011;22559;54.176;12.102;2022-11-24T09:49:06;39.63;;;19.00;;
36551;SDS011;22559;54.176;12.102;2022-11-24T09:51:40;32.50;;;17.53;;
36551;SDS011;22559;54.176;12.102;2022-11-24T09:54:24;40.60;;;19.53;;
36551;SDS011;22559;54.176;12.102;2022-11-24T09:56:52;45.73;;;21.00;;
36551;SDS011;22559;54.176;12.102;2022-11-24T09:59:24;36.33;;;19.07;;
36551;SDS011;22559;54.176;12.102;2022-11-24T10:01:51;37.83;;;18.50;;
36551;SDS011;22559;54.176;12.102;2022-11-24T10:26:39;33.30;;;16.30;;
36551;SDS011;22559;54.176;12.102;2022-11-24T10:31:50;34.57;;;16.60;;
36551;SDS011;22559;54.176;12.102;2022-11-24T10:34:21;33.80;;;17.33;;
36551;SDS011;22559;54.176;12.102;2022-11-24T10:39:38;39.23;;;17.30;;
36551;SDS011;22559;54.176;12.102;2022-11-24T10:42:16;37.87;;;17.93;;
36551;SDS011;22559;54.176;12.102;2022-11-24T10:44:56;39.43;;;17.97;;
36551;SDS011;22559;54.176;12.102;2022-11-24T10:47:40;37.10;;;17.50;;
36551;SDS011;22559;54.176;12.102;2022-11-24T10:52:54;39.67;;;17.17;;
36551;SDS011;22559;54.176;12.102;2022-11-24T10:58:21;36.97;;;17.43;;
36551;SDS011;22559;54.176;12.102;2022-11-24T11:00:50;42.87;;;19.57;;
36551;SDS011;22559;54.176;12.102;2022-11-24T11:03:17;44.17;;;18.83;;
36551;SDS011;22559;54.176;12.102;2022-11-24T11:05:49;40.23;;;17.67;;
36551;SDS011;22559;54.176;12.102;2022-11-24T11:08:31;42.53;;;17.77;;
36551;SDS011;22559;54.176;12.102;2022-11-24T11:13:55;35.97;;;18.10;;
36551;SDS011;22559;54.176;12.102;2022-11-24T11:24:41;44.10;;;17.80;;
36551;SDS011;22559;54.176;12.102;2022-11-24T11:27:16;40.63;;;18.13;;
36551;SDS011;22559;54.176;12.102;2022-11-24T11:29:43;42.77;;;18.43;;
36551;SDS011;22559;54.176;12.102;2022-11-24T11:32:16;41.07;;;19.47;;
36551;SDS011;22559;54.176;12.102;2022-11-24T11:34:48;35.63;;;18.20;;
36551;SDS011;22559;54.176;12.102;2022-11-24T11:37:15;39.23;;;18.03;;
36551;SDS011;22559;54.176;12.102;2022-11-24T11:39:43;40.07;;;17.93;;
36551;SDS011;22559;54.176;12.102;2022-11-24T11:50:12;41.63;;;19.07;;
36551;SDS011;22559;54.176;12.102;2022-11-24T12:01:05;41.80;;;17.97;;
36551;SDS011;22559;54.176;12.102;2022-11-24T12:12:24;33.23;;;17.77;;
36551;SDS011;22559;54.176;12.102;2022-11-24T12:15:13;35.77;;;17.90;;
36551;SDS011;22559;54.176;12.102;2022-11-24T12:28:40;41.67;;;18.57;;
36551;SDS011;22559;54.176;12.102;2022-11-24T12:47:28;33.30;;;17.67;;
36551;SDS011;22559;54.176;12.102;2022-11-24T12:50:18;41.90;;;17.13;;
36551;SDS011;22559;54.176;12.102;2022-11-24T12:55:18;37.30;;;17.73;;
36551;SDS011;22559;54.176;12.102;2022-11-24T12:58:02;36.03;;;18.13;;
36551;SDS011;22559;54.176;12.102;2022-11-24T13:08:42;41.87;;;19.00;;
36551;SDS011;22559;54.176;12.102;2022-11-24T13:13:56;34.03;;;17.23;;
36551;SDS011;22559;54.176;12.102;2022-11-24T13:16:23;34.60;;;15.63;;
36551;SDS011;22559;54.176;12.102;2022-11-24T13:23:59;38.70;;;17.30;;
36551;SDS011;22559;54.176;12.102;2022-11-24T13:26:30;34.07;;;18.00;;
36551;SDS011;22559;54.176;12.102;2022-11-24T13:29:27;36.23;;;17.40;;
36551;SDS011;22559;54.176;12.102;2022-11-24T13:39:46;27.13;;;14.90;;
36551;SDS011;22559;54.176;12.102;2022-11-24T13:42:13;28.70;;;16.17;;
36551;SDS011;22559;54.176;12.102;2022-11-24T13:44:42;31.00;;;16.33;;
36551;SDS011;22559;54.176;12.102;2022-11-24T13:50:04;32.33;;;16.40;;
36551;SDS011;22559;54.176;12.102;2022-11-24T14:02:50;33.87;;;15.20;;
36551;SDS011;22559;54.176;12.102;2022-11-24T14:05:18;25.57;;;15.00;;
36551;SDS011;22559;54.176;12.102;2022-11-24T14:07:48;29.33;;;16.40;;
36551;SDS011;22559;54.176;12.102;2022-11-24T14:10:16;31.53;;;16.83;;
36551;SDS011;22559;54.176;12.102;2022-11-24T14:15:53;28.37;;;15.83;;
36551;SDS011;22559;54.176;12.102;2022-11-24T14:18:44;29.47;;;15.07;;
36551;SDS011;22559;54.176;12.102;2022-11-24T14:21:24;30.70;;;16.33;;
36551;SDS011;22559;54.176;12.102;2022-11-24T14:23:55;27.93;;;15.50;;
36551;SDS011;22559;54.176;12.102;2022-11-24T14:26:45;29.90;;;16.17;;
36551;SDS011;22559;54.176;12.102;2022-11-24T14:29:22;28.90;;;16.70;;
36551;SDS011;22559;54.176;12.102;2022-11-24T14:34:21;27.17;;;15.53;;
36551;SDS011;22559;54.176;12.102;2022-11-24T14:36:48;26.30;;;16.10;;
36551;SDS011;22559;54.176;12.102;2022-11-24T14:39:18;30.60;;;15.60;;
36551;SDS011;22559;54.176;12.102;2022-11-24T14:47:32;33.37;;;16.93;;
36551;SDS011;22559;54.176;12.102;2022-11-24T14:50:11;31.27;;;15.27;;
36551;SDS011;22559;54.176;12.102;2022-11-24T14:52:42;23.17;;;14.40;;
36551;SDS011;22559;54.176;12.102;2022-11-24T14:55:26;23.43;;;14.97;;
36551;SDS011;22559;54.176;12.102;2022-11-24T14:57:59;30.23;;;15.90;;
36551;SDS011;22559;54.176;12.102;2022-11-24T15:00:26;27.53;;;15.00;;
36551;SDS011;22559;54.176;12.102;2022-11-24T15:05:25;27.90;;;15.40;;
36551;SDS011;22559;54.176;12.102;2022-11-24T15:08:11;29.80;;;15.90;;
36551;SDS011;22559;54.176;12.102;2022-11-24T15:10:38;26.53;;;14.93;;
36551;SDS011;22559;54.176;12.102;2022-11-24T15:13:15;28.13;;;15.73;;
36551;SDS011;22559;54.176;12.102;2022-11-24T15:15:49;24.43;;;14.77;;
36551;SDS011;22559;54.176;12.102;2022-11-24T15:18:40;26.30;;;15.30;;
36551;SDS011;22559;54.176;12.102;2022-11-24T15:21:08;28.60;;;14.93;;
36551;SDS011;22559;54.176;12.102;2022-11-24T15:23:35;24.47;;;13.83;;
36551;SDS011;22559;54.176;12.102;2022-11-24T15:28:30;26.17;;;15.00;;
36551;SDS011;22559;54.176;12.102;2022-11-24T15:31:09;29.33;;;15.60;;
36551;SDS011;22559;54.176;12.102;2022-11-24T15:33:37;26.37;;;15.20;;
36551;SDS011;22559;54.176;12.102;2022-11-24T15:36:03;29.87;;;14.57;;
36551;SDS011;22559;54.176;12.102;2022-11-24T15:38:29;28.07;;;14.93;;
36551;SDS011;22559;54.176;12.102;2022-11-24T15:40:56;26.17;;;14.97;;
36551;SDS011;22559;54.176;12.102;2022-11-24T15:43:30;28.03;;;15.30;;
36551;SDS011;22559;54.176;12.102;2022-11-24T15:46:03;26.10;;;14.03;;
36551;SDS011;22559;54.176;12.102;2022-11-24T15:48:30;24.07;;;14.37;;
36551;SDS011;22559;54.176;12.102;2022-11-24T15:50:57;26.23;;;15.83;;
36551;SDS011;22559;54.176;12.102;2022-11-24T15:56:23;26.00;;;14.97;;
36551;SDS011;22559;54.176;12.102;2022-11-24T15:58:52;23.77;;;13.87;;
36551;SDS011;22559;54.176;12.102;2022-11-24T16:01:18;27.33;;;14.20;;
36551;SDS011;22559;54.176;12.102;2022-11-24T16:03:46;26.37;;;15.20;;
36551;SDS011;22559;54.176;12.102;2022-11-24T16:06:11;28.27;;;15.13;;
36551;SDS011;22559;54.176;12.102;2022-11-24T16:08:40;29.67;;;15.60;;
36551;SDS011;22559;54.176;12.102;2022-11-24T16:11:06;24.97;;;15.60;;
36551;SDS011;22559;54.176;12.102;2022-11-24T16:13:31;30.23;;;15.90;;
36551;SDS011;22559;54.176;12.102;2022-11-24T16:15:57;28.47;;;15.60;;
36551;SDS011;22559;54.176;12.102;2022-11-24T16:18:22;30.93;;;15.13;;
36551;SDS011;22559;54.176;12.102;2022-11-24T16:20:48;25.87;;;13.97;;
36551;SDS011;22559;54.176;12.102;2022-11-24T16:23:14;32.47;;;16.23;;
36551;SDS011;22559;54.176;12.102;2022-11-24T16:25:39;28.73;;;14.30;;
36551;SDS011;22559;54.176;12.102;2022-11-24T16:28:05;20.93;;;13.70;;
36551;SDS011;22559;54.176;12.102;2022-11-24T16:30:30;27.63;;;15.37;;
36551;SDS011;22559;54.176;12.102;2022-11-24T16:32:56;28.17;;;14.23;;
36551;SDS011;22559;54.176;12.102;2022-11-24T16:35:22;29.87;;;14.83;;
36551;SDS011;22559;54.176;12.102;2022-11-24T16:37:47;25.57;;;15.10;;
36551;SDS011;22559;54.176;12.102;2022-11-24T16:40:13;21.80;;;14.33;;
36551;SDS011;22559;54.176;12.102;2022-11-24T16:42:39;24.63;;;15.57;;
36551;SDS011;22559;54.176;12.102;2022-11-24T16:45:04;26.77;;;14.73;;
36551;SDS011;22559;54.176;12.102;2022-11-24T16:47:30;25.83;;;14.87;;
36551;SDS011;22559;54.176;12.102;2022-11-24T16:49:56;26.03;;;14.37;;
36551;SDS011;22559;54.176;12.102;2022-11-24T16:52:22;27.40;;;15.77;;
36551;SDS011;22559;54.176;12.102;2022-11-24T16:54:47;26.13;;;15.13;;
36551;SDS011;22559;54.176;12.102;2022-11-24T16:57:13;27.63;;;15.60;;
36551;SDS011;22559;54.176;12.102;2022-11-24T16:59:39;27.37;;;15.70;;